Time;durP1;ratioP1;P1;durP2;ratioP2;P2;SDS_P1;SDS_P2;PMS_P1;PMS_P2;Temp;Humidity;BMP_temperature;BMP_pressure;BME280_temperature;BME280_humidity;BME280_pressure;Samples;Min_cycle;Max_cycle;Signal;HPM_P1;HPM_P2
2022/03/20 00:01:02;;;;;;;8.93;6.32;;;;;;;7.55;56.13;103623.16;4993519;28;102715;-49
2022/03/20 00:03:31;;;;;;;11.15;6.25;;;;;;;7.54;55.48;103616.91;4992462;28;103855;-50
2022/03/20 00:05:58;;;;;;;8.13;5.50;;;;;;;7.54;55.52;103618.75;4993775;28;102337;-49
2022/03/20 00:08:26;;;;;;;10.00;6.75;;;;;;;7.55;56.43;103615.03;4993115;28;101979;-50
2022/03/20 00:10:55;;;;;;;9.27;6.00;;;;;;;7.54;56.08;103616.06;4990636;28;102576;-50
2022/03/20 00:13:23;;;;;;;13.13;6.35;;;;;;;7.54;56.19;103611.47;4973056;28;103918;-50
2022/03/20 00:15:57;;;;;;;8.52;5.50;;;;;;;7.55;56.21;103617.72;4990196;28;101916;-50
2022/03/20 00:18:28;;;;;;;9.07;5.70;;;;;;;7.54;55.50;103610.63;4993252;28;102365;-49
2022/03/20 00:20:57;;;;;;;11.07;5.97;;;;;;;7.53;56.21;103598.94;4992901;28;102481;-50
2022/03/20 00:23:25;;;;;;;8.45;6.20;;;;;;;7.54;56.39;103597.09;4992566;28;103940;-49
2022/03/20 00:25:54;;;;;;;9.10;5.85;;;;;;;7.55;56.21;103591.47;4990204;28;102498;-50
2022/03/20 00:28:23;;;;;;;9.85;5.80;;;;;;;7.54;55.97;103588.97;4972964;28;102476;-50
2022/03/20 00:30:50;;;;;;;8.50;5.82;;;;;;;7.55;55.17;103590.63;4977527;28;102329;-50
2022/03/20 00:33:18;;;;;;;8.70;5.90;;;;;;;7.54;56.22;103589.78;4992282;28;103933;-50
2022/03/20 00:35:45;;;;;;;8.55;5.78;;;;;;;7.54;55.68;103588.97;4986567;28;102533;-50
2022/03/20 00:38:12;;;;;;;10.18;5.57;;;;;;;7.55;55.83;103590.63;4992584;28;102334;-50
2022/03/20 00:40:38;;;;;;;8.27;5.50;;;;;;;7.54;56.49;103583.53;4981357;28;102228;-50
2022/03/20 00:43:06;;;;;;;10.25;6.10;;;;;;;7.54;55.62;103588.97;4987729;28;104014;-50
2022/03/20 00:45:33;;;;;;;8.60;5.85;;;;;;;7.54;55.25;103597.09;4986214;28;102574;-50
2022/03/20 00:48:01;;;;;;;10.38;6.45;;;;;;;7.55;55.10;103585.22;4990912;28;101993;-50
2022/03/20 00:50:29;;;;;;;10.93;6.50;;;;;;;7.54;55.12;103594.38;4991141;28;102084;-50
2022/03/20 00:52:57;;;;;;;9.45;6.13;;;;;;;7.54;55.70;103589.78;4991943;28;104174;-49
2022/03/20 00:55:25;;;;;;;10.13;6.72;;;;;;;7.55;56.31;103596.06;4986439;28;102250;-50
2022/03/20 00:57:51;;;;;;;11.85;6.20;;;;;;;7.56;55.13;103603.16;4980115;28;101935;-50
2022/03/20 01:00:18;;;;;;;10.05;7.00;;;;;;;7.54;55.68;103597.94;4973843;28;102257;-50
2022/03/20 01:02:45;;;;;;;11.00;6.72;;;;;;;7.55;56.53;103598.75;4984830;28;104129;-50
2022/03/20 01:05:13;;;;;;;10.23;6.63;;;;;;;7.55;56.13;103596.06;4979669;28;102698;-49
2022/03/20 01:07:44;;;;;;;10.70;6.70;;;;;;;7.54;55.74;103597.94;4979920;28;101991;-51
2022/03/20 01:10:11;;;;;;;10.60;6.90;;;;;;;7.54;55.23;103588.97;4973825;28;102134;-50
2022/03/20 01:12:41;;;;;;;8.70;5.72;;;;;;;7.54;55.60;103589.78;4973030;28;104025;-49
2022/03/20 01:15:11;;;;;;;10.40;6.43;;;;;;;7.55;55.87;103582.50;4991138;28;101966;-49
2022/03/20 01:17:38;;;;;;;9.15;6.18;;;;;;;7.55;55.87;103585.22;4992185;28;103055;-50
2022/03/20 01:20:08;;;;;;;10.10;6.22;;;;;;;7.53;55.64;103582.66;4986838;28;102248;-50
2022/03/20 01:22:36;;;;;;;10.88;6.22;;;;;;;7.54;55.33;103595.22;4973912;28;103849;-50
2022/03/20 01:25:06;;;;;;;8.65;6.03;;;;;;;7.54;56.01;103584.38;4983858;28;102646;-50
2022/03/20 01:27:34;;;;;;;9.50;6.15;;;;;;;7.55;55.45;103585.22;4991259;28;101968;-50
2022/03/20 01:30:01;;;;;;;9.25;6.07;;;;;;;7.53;56.24;103576.41;4995032;28;102197;-49
2022/03/20 01:32:28;;;;;;;10.20;6.45;;;;;;;7.55;56.21;103574.38;4991198;28;104023;-49
2022/03/20 01:34:55;;;;;;;8.60;6.03;;;;;;;7.54;55.93;103572.69;4992211;28;101833;-51
2022/03/20 01:37:22;;;;;;;10.05;6.35;;;;;;;7.52;56.48;103572.84;4991494;28;102254;-49
2022/03/20 01:39:48;;;;;;;9.18;5.88;;;;;;;7.54;55.70;103580.81;4990638;28;102842;-50
2022/03/20 01:42:17;;;;;;;10.57;6.25;;;;;;;7.54;56.02;103588.97;4978981;28;103387;-50
2022/03/20 01:44:43;;;;;;;9.63;6.55;;;;;;;7.54;56.04;103587.09;5000796;28;102486;-50
2022/03/20 01:47:11;;;;;;;8.68;5.90;;;;;;;7.54;56.33;103588.97;5000367;28;103872;-50
2022/03/20 01:49:37;;;;;;;8.52;6.20;;;;;;;7.54;55.77;103595.22;4984868;28;102420;-50
2022/03/20 01:52:11;;;;;;;8.88;6.05;;;;;;;7.54;55.33;103588.97;4991792;28;104130;-50
2022/03/20 01:54:41;;;;;;;10.32;6.13;;;;;;;7.54;56.21;103586.25;4992130;28;101949;-50
2022/03/20 01:57:09;;;;;;;7.35;5.22;;;;;;;7.53;55.46;103571.81;4985451;28;102928;-50
2022/03/20 01:59:37;;;;;;;8.23;6.00;;;;;;;7.54;56.35;103572.69;4992637;28;102329;-50
2022/03/20 02:02:05;;;;;;;9.15;5.90;;;;;;;7.54;55.38;103576.25;4991580;28;103642;-50
2022/03/20 02:04:35;;;;;;;8.63;5.90;;;;;;;7.54;56.15;103569.97;4991819;28;102182;-50
2022/03/20 02:07:02;;;;;;;7.57;5.88;;;;;;;7.55;55.76;103563.53;4988651;28;102718;-50
2022/03/20 02:09:29;;;;;;;8.50;6.00;;;;;;;7.54;56.08;103570.81;4992671;28;102223;-51
2022/03/20 02:11:56;;;;;;;8.73;5.95;;;;;;;7.55;55.71;103574.38;4991756;28;103848;-50
2022/03/20 02:14:24;;;;;;;7.55;5.43;;;;;;;7.54;56.46;103583.53;4991936;28;102439;-50
2022/03/20 02:16:52;;;;;;;8.55;5.50;;;;;;;7.54;56.72;103569.97;4990673;28;102173;-49
2022/03/20 02:19:19;;;;;;;8.32;5.45;;;;;;;7.53;56.38;103570.97;4992206;28;102283;-49
2022/03/20 02:21:49;;;;;;;8.97;5.83;;;;;;;7.54;56.32;103564.56;4991416;28;103793;-49
2022/03/20 02:24:32;;;;;;;7.93;6.00;;;;;;;7.54;56.32;103572.69;4991628;28;102577;-49
2022/03/20 02:27:12;;;;;;;9.00;6.15;;;;;;;7.54;56.63;103578.13;4972396;28;102440;-49
2022/03/20 02:29:39;;;;;;;8.07;5.47;;;;;;;7.54;56.49;103572.69;4973525;28;102655;-50
2022/03/20 02:32:08;;;;;;;8.63;5.25;;;;;;;7.54;56.26;103569.97;4971722;28;104299;-50
2022/03/20 02:34:36;;;;;;;7.72;5.85;;;;;;;7.54;55.88;103564.56;4973891;28;102043;-49
2022/03/20 02:37:06;;;;;;;8.98;6.25;;;;;;;7.54;55.87;103564.56;4986986;28;101903;-49
2022/03/20 02:39:33;;;;;;;10.18;6.25;;;;;;;7.54;56.41;103557.28;4993187;28;102493;-50
2022/03/20 02:42:01;;;;;;;6.85;5.55;;;;;;;7.54;56.00;103556.44;4980260;28;103782;-49
2022/03/20 02:44:48;;;;;;;6.97;5.37;;;;;;;7.54;56.33;103567.28;4980068;28;102533;-49
2022/03/20 02:47:15;;;;;;;9.88;6.13;;;;;;;7.54;55.93;103568.13;4975465;28;102266;-50
2022/03/20 02:49:42;;;;;;;8.13;5.80;;;;;;;7.55;55.64;103558.13;4976525;28;102155;-50
2022/03/20 02:52:11;;;;;;;8.63;5.72;;;;;;;7.54;56.30;103562.69;4974256;28;103919;-50
2022/03/20 02:54:37;;;;;;;9.85;5.93;;;;;;;7.55;56.26;103563.53;4976451;28;102644;-50
2022/03/20 02:57:05;;;;;;;7.38;5.65;;;;;;;7.55;55.80;103566.25;4977750;28;102388;-50
2022/03/20 02:59:31;;;;;;;9.07;6.20;;;;;;;7.54;56.04;103573.53;4990348;28;102434;-50
2022/03/20 03:01:59;;;;;;;8.20;5.68;;;;;;;7.54;56.18;103556.44;4993202;28;103881;-50
2022/03/20 03:04:25;;;;;;;9.50;5.32;;;;;;;7.55;56.67;103553.53;4975447;28;102201;-50
2022/03/20 03:06:52;;;;;;;7.97;5.43;;;;;;;7.55;56.41;103552.69;4991637;28;102283;-49
2022/03/20 03:12:09;;;;;;;9.48;5.35;;;;;;;7.54;56.77;103562.69;4974546;28;104099;-50
2022/03/20 03:17:27;;;;;;;7.88;5.47;;;;;;;7.55;56.32;103536.44;4993144;28;102289;-50
2022/03/20 03:19:54;;;;;;;8.50;5.50;;;;;;;7.55;56.60;103533.72;4993951;28;102563;-50
2022/03/20 03:22:21;;;;;;;8.25;5.75;;;;;;;7.55;56.48;103548.13;4996718;28;104242;-50
2022/03/20 03:24:51;;;;;;;8.00;5.50;;;;;;;7.56;56.31;103565.22;4994277;28;102285;-50
2022/03/20 03:27:17;;;;;;;7.10;5.47;;;;;;;7.55;55.45;103564.38;4992885;28;102086;-50
2022/03/20 03:29:44;;;;;;;7.43;4.75;;;;;;;7.55;56.00;103568.94;4995030;28;102507;-51
2022/03/20 03:32:11;;;;;;;7.55;5.60;;;;;;;7.55;55.96;103563.53;4993036;28;103931;-50
2022/03/20 03:37:23;;;;;;;8.70;5.75;;;;;;;7.55;55.96;103553.53;4993955;28;102447;-50
2022/03/20 03:39:51;;;;;;;8.32;5.60;;;;;;;7.55;55.97;103552.69;4994695;28;102662;-50
2022/03/20 03:42:19;;;;;;;8.40;5.22;;;;;;;7.56;55.89;103554.38;4982225;28;104090;-49
2022/03/20 03:44:49;;;;;;;7.53;5.27;;;;;;;7.56;55.78;103548.94;4975859;28;102335;-49
2022/03/20 03:47:15;;;;;;;7.13;5.30;;;;;;;7.55;56.08;103548.13;4993272;28;102273;-49
2022/03/20 03:49:43;;;;;;;7.55;5.00;;;;;;;7.56;56.16;103548.94;4994203;28;101973;-50
2022/03/20 03:52:11;;;;;;;7.25;4.93;;;;;;;7.56;55.61;103554.38;4992338;28;103850;-50
2022/03/20 03:54:38;;;;;;;;;;;;;;;7.56;56.57;103546.25;4981572;28;102528;-50
2022/03/20 03:57:06;;;;;;;8.40;5.18;;;;;;;7.56;56.96;103551.66;4976236;28;104393;-50
2022/03/20 03:59:33;;;;;;;7.93;4.93;;;;;;;7.56;56.52;103559.78;4994255;28;102186;-50
2022/03/20 04:02:00;;;;;;;6.80;5.13;;;;;;;7.57;55.96;103556.03;4991441;28;103740;-49
2022/03/20 04:04:27;;;;;;;7.03;4.85;;;;;;;7.56;56.77;103551.66;4993685;28;102137;-50
2022/03/20 04:06:59;;;;;;;7.28;4.93;;;;;;;7.56;56.53;103548.94;4991877;28;101951;-50
2022/03/20 04:09:26;;;;;;;6.70;4.82;;;;;;;7.55;56.51;103552.69;4994568;28;102063;-50
2022/03/20 04:11:53;;;;;;;6.03;4.70;;;;;;;7.57;56.68;103553.34;4992811;28;103899;-50
2022/03/20 04:14:22;;;;;;;6.50;4.68;;;;;;;7.56;56.04;103559.78;4993724;28;102561;-50
2022/03/20 04:16:49;;;;;;;6.72;5.07;;;;;;;7.56;56.84;103570.63;4992730;28;101980;-49
2022/03/20 04:19:15;;;;;;;8.40;5.28;;;;;;;7.56;56.38;103570.63;4994277;28;102736;-50
2022/03/20 04:21:42;;;;;;;6.78;5.15;;;;;;;7.55;56.71;103571.66;4991783;28;103761;-50
2022/03/20 04:24:09;;;;;;;7.93;5.47;;;;;;;7.56;56.26;103581.47;4993167;28;102200;-50
2022/03/20 04:26:35;;;;;;;7.40;5.22;;;;;;;7.57;57.17;103575.00;4987719;28;102084;-50
2022/03/20 04:29:02;;;;;;;8.38;5.50;;;;;;;7.56;56.80;103576.88;4973938;28;102390;-50
2022/03/20 04:31:30;;;;;;;6.55;5.10;;;;;;;7.57;56.62;103583.97;4972940;28;104102;-50
2022/03/20 04:33:58;;;;;;;7.40;5.35;;;;;;;7.56;56.57;103574.19;4973084;28;101988;-50
2022/03/20 04:36:27;;;;;;;6.38;5.13;;;;;;;7.57;55.81;103588.56;4975569;28;102771;-50
2022/03/20 04:38:55;;;;;;;;;;;;;;;7.58;56.37;103590.28;4986257;28;102556;-50
2022/03/20 04:41:22;;;;;;;6.82;5.25;;;;;;;7.58;55.95;103579.44;4973121;28;104201;-50
2022/03/20 04:43:52;;;;;;;8.13;5.68;;;;;;;7.57;56.83;103583.97;4988868;28;101911;-50
2022/03/20 04:46:19;;;;;;;6.70;4.85;;;;;;;7.58;57.29;103595.69;4981446;28;102459;-50
2022/03/20 04:59:50;;;;;;;7.25;4.65;;;;;;;7.58;56.61;103579.44;4981279;28;102082;-50
2022/03/20 05:02:17;;;;;;;7.40;5.45;;;;;;;7.58;57.02;103574.84;4989059;28;103945;-50
2022/03/20 05:04:45;;;;;;;6.47;4.78;;;;;;;7.58;56.14;103579.44;4977488;28;102531;-50
2022/03/20 05:07:17;;;;;;;6.38;4.63;;;;;;;7.59;56.61;103586.53;4972448;28;101725;-50
2022/03/20 05:15:18;;;;;;;6.18;4.97;;;;;;;7.59;57.04;103564.84;4991006;28;101948;-50
2022/03/20 05:17:44;;;;;;;8.07;5.05;;;;;;;7.59;56.91;103571.09;4991961;28;101908;-50
2022/03/20 05:20:14;;;;;;;6.63;4.78;;;;;;;7.61;56.84;103579.03;4993168;28;102135;-50
2022/03/20 05:22:40;;;;;;;5.75;4.55;;;;;;;7.61;56.57;103589.88;4978146;28;103848;-50
2022/03/20 05:25:12;;;;;;;6.65;5.20;;;;;;;7.61;56.69;103574.50;4998234;28;102255;-50
2022/03/20 05:27:39;;;;;;;7.05;5.13;;;;;;;7.61;56.72;103589.88;4991679;28;102105;-50
2022/03/20 05:30:07;;;;;;;7.93;5.70;;;;;;;7.61;56.25;103595.31;4985797;28;102412;-50
2022/03/20 05:32:35;;;;;;;16.55;8.57;;;;;;;7.61;56.54;103592.59;4970874;28;103464;-50
2022/03/20 05:35:03;;;;;;;10.18;6.65;;;;;;;7.61;56.71;103598.88;4972248;28;101974;-50
2022/03/20 05:37:32;;;;;;;11.87;7.40;;;;;;;7.62;56.80;103599.72;4971843;28;102607;-50
2022/03/20 05:39:59;;;;;;;15.23;8.23;;;;;;;7.62;57.09;103597.00;4981460;28;102335;-50
2022/03/20 05:42:25;;;;;;;16.55;8.73;;;;;;;7.63;57.21;103604.94;4981959;28;103310;-50
2022/03/20 05:44:52;;;;;;;13.90;9.05;;;;;;;7.64;56.82;103611.22;4972014;28;102003;-50
2022/03/20 05:47:19;;;;;;;16.27;9.38;;;;;;;7.65;56.82;103610.22;4989093;28;102557;-50
2022/03/20 05:49:47;;;;;;;18.13;9.95;;;;;;;7.65;57.09;103607.50;4992775;28;102147;-50
2022/03/20 05:52:14;;;;;;;18.23;10.05;;;;;;;7.65;56.64;103613.75;4990113;28;103769;-50
2022/03/20 05:54:42;;;;;;;18.38;10.63;;;;;;;7.65;56.25;103611.06;4991698;28;103861;-50
2022/03/20 05:59:55;;;;;;;17.27;9.38;;;;;;;7.66;57.12;103609.19;4974324;28;102473;-50
2022/03/20 06:02:24;;;;;;;19.13;9.90;;;;;;;7.67;57.23;103610.84;4987438;28;104906;-50
2022/03/20 06:04:51;;;;;;;18.25;9.90;;;;;;;7.67;57.05;103616.28;4985964;28;102503;-50
2022/03/20 06:07:18;;;;;;;17.83;9.18;;;;;;;7.67;56.13;103605.44;4988587;28;103611;-49
2022/03/20 06:09:46;;;;;;;19.63;10.18;;;;;;;7.68;56.68;103612.53;4989191;28;102246;-50
2022/03/20 06:12:13;;;;;;;17.73;9.85;;;;;;;7.67;57.49;103605.44;4988563;28;104910;-50
2022/03/20 06:14:39;;;;;;;14.60;8.85;;;;;;;7.67;57.32;103605.44;4990058;28;102451;-49
2022/03/20 06:17:08;;;;;;;16.13;9.20;;;;;;;7.67;56.86;103600.00;4992221;28;102245;-50
2022/03/20 06:19:35;;;;;;;12.10;6.83;;;;;;;7.67;56.60;103597.31;4990877;28;102753;-50
2022/03/20 06:22:04;;;;;;;17.30;9.07;;;;;;;7.68;56.21;103607.97;4990645;28;103896;-50
2022/03/20 06:24:32;;;;;;;17.88;9.75;;;;;;;7.69;57.04;103614.25;4999067;28;102054;-50
2022/03/20 06:27:00;;;;;;;15.32;9.10;;;;;;;7.68;57.20;103613.41;4983760;28;102494;-50
2022/03/20 06:29:26;;;;;;;17.10;9.10;;;;;;;7.69;56.71;103608.81;4988234;28;102648;-50
2022/03/20 06:31:53;;;;;;;16.52;9.63;;;;;;;7.70;56.31;103621.34;4970917;28;104270;-51
2022/03/20 06:34:21;;;;;;;14.77;9.60;;;;;;;7.70;57.02;103611.34;4971488;28;103331;-50
2022/03/20 06:36:47;;;;;;;13.73;8.60;;;;;;;7.70;56.63;103605.06;4971230;28;102837;-50
2022/03/20 06:39:14;;;;;;;14.10;8.38;;;;;;;7.70;56.90;103611.34;4985796;28;102543;-50
2022/03/20 06:41:42;;;;;;;15.88;9.52;;;;;;;7.70;57.10;103605.91;4981023;28;104195;-50
2022/03/20 06:44:10;;;;;;;16.10;8.82;;;;;;;7.71;57.15;103606.75;4982546;28;102516;-51
2022/03/20 06:46:39;;;;;;;14.20;8.10;;;;;;;7.71;57.10;103598.63;4988283;28;102912;-50
2022/03/20 06:49:06;;;;;;;13.75;8.07;;;;;;;7.71;56.59;103595.91;4988968;28;102505;-50
2022/03/20 06:51:33;;;;;;;16.65;8.32;;;;;;;7.72;57.07;103608.47;4990621;28;104306;-50
2022/03/20 06:53:59;;;;;;;14.75;8.63;;;;;;;7.72;57.03;103592.19;4983633;28;101973;-50
2022/03/20 06:56:30;;;;;;;12.02;7.47;;;;;;;7.72;56.48;103592.19;4986522;28;102003;-50
2022/03/20 06:58:57;;;;;;;14.38;8.70;;;;;;;7.72;56.56;103581.34;4987897;28;102461;-50
2022/03/20 07:01:26;;;;;;;15.35;7.90;;;;;;;7.72;56.47;103581.34;4988969;28;104091;-49
2022/03/20 07:03:53;;;;;;;;;;;;;;;7.71;56.95;103575.06;4981399;28;102586;-50
2022/03/20 07:06:20;;;;;;;13.10;7.97;;;;;;;7.71;56.29;103572.34;4983725;28;103590;-50
2022/03/20 07:08:54;;;;;;;13.38;8.13;;;;;;;7.73;56.35;103574.06;4990755;28;102695;-49
2022/03/20 07:11:20;;;;;;;15.88;8.07;;;;;;;7.73;57.06;103577.59;4982941;28;104351;-50
2022/03/20 07:13:50;;;;;;;12.15;8.13;;;;;;;7.73;56.42;103571.34;4989714;28;102311;-50
2022/03/20 07:16:19;;;;;;;13.18;7.68;;;;;;;7.73;56.36;103566.75;4991247;28;102456;-50
2022/03/20 07:18:48;;;;;;;13.00;8.05;;;;;;;7.74;56.40;103573.03;4993099;28;102543;-50
2022/03/20 07:21:15;;;;;;;16.05;7.85;;;;;;;7.73;56.47;103572.19;4990906;28;103934;-50
2022/03/20 07:23:41;;;;;;;12.35;7.63;;;;;;;7.74;56.79;103568.44;4988993;28;102114;-50
2022/03/20 07:31:39;;;;;;;9.73;6.85;;;;;;;7.75;56.28;103586.38;5002581;28;103921;-53
2022/03/20 07:34:08;;;;;;;11.98;6.88;;;;;;;7.75;56.70;103583.66;4993741;28;102348;-50
2022/03/20 07:36:34;;;;;;;10.50;7.25;;;;;;;7.75;56.11;103580.97;4988485;28;102469;-50
2022/03/20 07:39:01;;;;;;;12.13;7.30;;;;;;;7.74;57.13;103573.88;4994744;28;102278;-50
2022/03/20 07:41:28;;;;;;;10.38;7.03;;;;;;;7.76;56.66;103581.84;4993622;28;103947;-50
2022/03/20 07:43:55;;;;;;;12.15;7.20;;;;;;;7.75;56.85;103572.81;4993062;28;102306;-50
2022/03/20 07:46:22;;;;;;;12.13;7.32;;;;;;;7.75;56.62;103572.00;4992682;28;102023;-50
2022/03/20 07:48:50;;;;;;;10.30;6.47;;;;;;;7.74;56.85;103573.88;4994455;28;102724;-50
2022/03/20 07:51:20;;;;;;;11.45;7.15;;;;;;;7.75;56.17;103574.69;4992900;28;103838;-50
2022/03/20 07:53:46;;;;;;;10.65;6.93;;;;;;;7.75;56.44;103574.69;4987256;28;101893;-49
2022/03/20 07:56:13;;;;;;;11.18;7.03;;;;;;;7.76;56.46;103566.41;4988231;28;103496;-50
2022/03/20 07:58:41;;;;;;;9.15;6.43;;;;;;;7.76;55.93;103566.41;4987419;28;101970;-50
2022/03/20 08:01:08;;;;;;;11.63;6.97;;;;;;;7.76;56.34;103571.81;4992778;28;104143;-50
2022/03/20 08:03:35;;;;;;;12.02;7.03;;;;;;;7.75;55.77;103570.13;4991750;28;102294;-50
2022/03/20 08:06:02;;;;;;;10.02;6.70;;;;;;;7.76;55.54;103566.41;4992862;28;101994;-50
2022/03/20 08:08:30;;;;;;;12.23;7.05;;;;;;;7.76;56.98;103552.84;4993539;28;102198;-51
2022/03/20 08:10:57;;;;;;;9.02;6.28;;;;;;;7.77;56.37;103556.41;4995966;28;103943;-50
2022/03/20 08:13:24;;;;;;;10.70;6.80;;;;;;;7.77;56.18;103554.53;4997582;28;102769;-49
2022/03/20 08:15:50;;;;;;;8.73;6.28;;;;;;;7.78;55.70;103558.06;4992998;28;101891;-50
2022/03/20 08:18:17;;;;;;;9.73;5.90;;;;;;;7.77;56.48;103551.81;4993011;28;102293;-49
2022/03/20 08:20:44;;;;;;;8.50;6.55;;;;;;;7.77;55.59;103540.13;4992386;28;104744;-50
2022/03/20 08:23:10;;;;;;;9.13;6.45;;;;;;;7.77;55.66;103546.41;4993902;28;101981;-50
2022/03/20 08:25:38;;;;;;;8.73;5.97;;;;;;;7.78;55.64;103542.66;4992807;28;102180;-50
2022/03/20 08:28:07;;;;;;;8.48;6.30;;;;;;;7.78;55.90;103533.69;4993055;28;102315;-50
2022/03/20 08:30:34;;;;;;;12.60;6.50;;;;;;;7.77;55.15;103538.25;4986266;28;103795;-50
2022/03/20 08:33:01;;;;;;;9.00;6.45;;;;;;;7.77;55.55;103535.56;4992656;28;102399;-50
2022/03/20 08:35:27;;;;;;;9.07;5.90;;;;;;;7.78;55.64;103534.50;4991281;28;102494;-50
2022/03/20 08:37:55;;;;;;;8.18;5.72;;;;;;;7.78;55.63;103531.81;4989138;28;103088;-50
2022/03/20 08:40:24;;;;;;;7.88;5.55;;;;;;;7.77;55.30;103524.69;4981311;28;103940;-50
2022/03/20 08:42:53;;;;;;;9.63;6.17;;;;;;;7.79;55.06;103522.66;4976312;28;102280;-50
2022/03/20 08:45:20;;;;;;;9.18;5.72;;;;;;;7.78;55.54;103531.81;4986344;28;101976;-50
2022/03/20 08:47:48;;;;;;;10.98;6.57;;;;;;;7.77;55.63;103524.69;4990643;28;102245;-50
2022/03/20 08:50:15;;;;;;;8.35;5.80;;;;;;;7.77;54.49;103519.28;4975585;28;103920;-49
2022/03/20 08:52:44;;;;;;;7.78;5.78;;;;;;;7.75;55.95;103524.03;4985357;28;102220;-50
2022/03/20 08:55:11;;;;;;;10.13;6.63;;;;;;;7.76;55.85;103523.03;4990120;28;102375;-50
2022/03/20 08:57:39;;;;;;;10.38;6.13;;;;;;;7.76;54.91;103528.44;4981320;28;102436;-50
2022/03/20 09:00:10;;;;;;;6.82;5.47;;;;;;;7.75;54.68;103524.03;4980047;28;104148;-50
2022/03/20 09:02:36;;;;;;;9.02;5.53;;;;;;;7.74;55.34;103516.94;5005552;28;102647;-50
2022/03/20 09:05:05;;;;;;;8.35;5.82;;;;;;;7.74;54.83;103516.09;4983128;28;102356;-50
2022/03/20 09:07:32;;;;;;;8.48;5.78;;;;;;;7.74;54.60;103525.06;4981962;28;102531;-50
2022/03/20 09:09:59;;;;;;;8.70;5.32;;;;;;;7.74;53.76;103518.81;4990847;28;104047;-50
2022/03/20 09:12:26;;;;;;;9.10;6.10;;;;;;;7.73;53.64;103517.13;4988334;28;102095;-50
2022/03/20 09:14:53;;;;;;;8.32;5.75;;;;;;;7.73;53.82;103517.97;4991379;28;101997;-50
2022/03/20 09:20:07;;;;;;;9.80;5.10;;;;;;;7.72;54.66;103516.28;4990818;28;103883;-50
2022/03/20 09:22:34;;;;;;;6.63;5.50;;;;;;;7.73;54.64;103522.56;4991664;28;102196;-49
2022/03/20 09:25:01;;;;;;;7.65;5.10;;;;;;;7.71;54.64;103518.13;4989721;28;102290;-50
2022/03/20 09:27:28;;;;;;;7.95;5.72;;;;;;;7.72;54.28;103524.44;4988852;28;102166;-50
2022/03/20 09:29:55;;;;;;;9.45;5.78;;;;;;;7.73;54.41;103523.38;4988959;28;103909;-50
2022/03/20 09:32:25;;;;;;;7.17;5.37;;;;;;;7.71;54.17;103520.00;4988626;28;102385;-50
2022/03/20 09:34:51;;;;;;;8.38;5.35;;;;;;;7.71;53.74;103525.44;4988869;28;102650;-50
2022/03/20 09:37:18;;;;;;;8.02;5.70;;;;;;;7.71;53.11;103525.44;4988195;28;102805;-50
2022/03/20 09:39:45;;;;;;;10.45;5.78;;;;;;;7.70;53.25;103518.34;4985472;28;103928;-49
2022/03/20 09:42:13;;;;;;;8.90;6.03;;;;;;;7.70;54.18;103512.91;4987750;28;102107;-50
2022/03/20 09:44:42;;;;;;;10.13;6.00;;;;;;;7.70;54.54;103518.34;4985656;28;102768;-50
2022/03/20 09:47:10;;;;;;;8.70;6.18;;;;;;;7.71;53.88;103520.00;4992386;28;102093;-50
2022/03/20 09:49:39;;;;;;;10.90;6.13;;;;;;;7.71;53.82;103517.31;4988970;28;104043;-49
2022/03/20 09:52:06;;;;;;;9.93;6.20;;;;;;;7.71;53.95;103520.00;4991730;28;102723;-50
2022/03/20 09:54:34;;;;;;;9.20;6.07;;;;;;;7.71;53.86;103515.44;4990103;28;102443;-50
2022/03/20 09:57:04;;;;;;;8.70;6.40;;;;;;;7.72;53.92;103510.88;4987487;28;102325;-50
2022/03/20 09:59:32;;;;;;;9.52;6.35;;;;;;;7.70;53.71;103508.31;4970698;28;103871;-50
2022/03/20 10:02:02;;;;;;;10.20;6.00;;;;;;;7.71;53.98;103504.59;4972059;28;101873;-50
2022/03/20 10:04:30;;;;;;;8.45;6.05;;;;;;;7.73;53.58;103500.88;4970928;28;102412;-50
2022/03/20 10:06:58;;;;;;;7.63;5.63;;;;;;;7.71;53.94;103503.75;4972009;28;102724;-50
2022/03/20 10:09:24;;;;;;;31.63;6.95;;;;;;;7.73;54.27;103499.00;4970332;28;103866;-50
2022/03/20 10:11:54;;;;;;;172.20;15.75;;;;;;;7.74;54.35;103506.09;4984886;28;101936;-49
2022/03/20 10:14:24;;;;;;;137.52;14.95;;;;;;;7.76;53.96;103490.50;4990854;28;102489;-50
2022/03/20 10:16:55;;;;;;;13.45;5.47;;;;;;;7.74;54.47;103487.13;4991600;28;102027;-50
2022/03/20 10:19:29;;;;;;;7.03;5.50;;;;;;;7.75;54.44;103494.22;4990278;28;103846;-50
2022/03/20 10:21:59;;;;;;;8.88;5.72;;;;;;;7.75;54.31;103486.06;4991038;28;102367;-50
2022/03/20 10:24:27;;;;;;;6.82;5.15;;;;;;;7.74;53.47;103484.41;4990663;28;102392;-49
2022/03/20 10:27:05;;;;;;;11.50;6.10;;;;;;;7.74;53.65;103494.41;4991971;28;102425;-50
2022/03/20 10:29:33;;;;;;;6.70;4.78;;;;;;;7.72;53.66;103472.91;4990158;28;103910;-50
2022/03/20 10:32:02;;;;;;;5.70;4.57;;;;;;;7.73;53.75;103471.06;4984173;28;102079;-50
2022/03/20 10:34:29;;;;;;;6.95;5.38;;;;;;;7.72;53.66;103472.91;4982804;28;102667;-50
2022/03/20 10:36:55;;;;;;;7.05;5.18;;;;;;;7.72;53.36;103467.50;4991619;28;102158;-50
2022/03/20 10:39:27;;;;;;;6.65;5.63;;;;;;;7.72;53.80;103470.22;4979446;28;104051;-50
2022/03/20 10:41:54;;;;;;;8.40;5.13;;;;;;;7.72;53.45;103459.38;4986232;28;102389;-50
2022/03/20 10:44:24;;;;;;;8.07;4.82;;;;;;;7.73;54.47;103460.22;4989929;28;102293;-51
2022/03/20 10:46:57;;;;;;;8.40;5.15;;;;;;;7.71;54.06;103447.66;4988616;28;102189;-50
2022/03/20 10:49:24;;;;;;;9.05;5.25;;;;;;;7.72;53.27;103456.66;4978246;28;103814;-50
2022/03/20 10:52:02;;;;;;;7.80;4.88;;;;;;;7.71;54.05;103458.50;4981377;28;102356;-50
2022/03/20 10:54:41;;;;;;;7.35;4.70;;;;;;;7.72;54.43;103456.66;4985844;28;102522;-50
2022/03/20 10:57:10;;;;;;;7.50;4.40;;;;;;;7.71;52.94;103455.78;4994723;28;102268;-50
2022/03/20 10:59:36;;;;;;;7.95;5.13;;;;;;;7.71;53.27;103442.22;4976174;28;103960;-51
2022/03/20 11:02:05;;;;;;;8.85;5.15;;;;;;;7.73;53.21;103430.38;4981777;28;102243;-50
2022/03/20 11:04:32;;;;;;;7.10;5.45;;;;;;;7.72;53.44;103418.72;4990882;28;102477;-50
2022/03/20 11:07:00;;;;;;;6.90;4.68;;;;;;;7.72;52.93;103424.13;4975992;28;102091;-50
2022/03/20 11:09:29;;;;;;;6.00;4.82;;;;;;;7.72;53.48;103429.56;4972774;28;103441;-49
2022/03/20 11:11:59;;;;;;;5.82;5.18;;;;;;;7.71;53.30;103422.41;4974141;28;102313;-50
2022/03/20 11:14:27;;;;;;;5.70;4.55;;;;;;;7.71;53.76;103422.41;4974205;28;102303;-50
2022/03/20 11:17:01;;;;;;;6.75;4.72;;;;;;;7.71;53.09;103425.13;4976429;28;102518;-49
2022/03/20 11:19:29;;;;;;;5.97;5.20;;;;;;;7.71;54.16;103414.28;4993451;28;103689;-49
2022/03/20 11:22:00;;;;;;;7.38;4.63;;;;;;;7.71;53.15;103422.41;4994156;28;101942;-50
2022/03/20 11:24:28;;;;;;;7.05;4.80;;;;;;;7.71;54.19;103414.28;4993305;28;102437;-50
2022/03/20 11:27:01;;;;;;;5.63;4.50;;;;;;;7.71;53.69;103411.56;4994048;28;102472;-49
2022/03/20 11:29:30;;;;;;;7.28;4.50;;;;;;;7.71;53.62;103406.16;4993277;28;103726;-49
2022/03/20 11:31:58;;;;;;;6.22;5.03;;;;;;;7.70;54.16;103410.75;4993374;28;102600;-50
2022/03/20 11:34:27;;;;;;;9.33;4.77;;;;;;;7.70;53.71;103416.16;4992888;28;102353;-49
2022/03/20 11:37:05;;;;;;;5.10;4.45;;;;;;;7.71;54.18;103422.41;4992422;28;102267;-50
2022/03/20 11:39:35;;;;;;;6.70;4.35;;;;;;;7.70;53.77;103410.75;4992424;28;103926;-50
2022/03/20 11:42:24;;;;;;;6.38;4.60;;;;;;;7.70;54.10;103402.63;4993208;28;102393;-49
2022/03/20 11:44:52;;;;;;;6.28;4.55;;;;;;;7.71;53.29;103400.75;4986209;28;102085;-50
2022/03/20 11:47:21;;;;;;;5.57;4.43;;;;;;;7.70;53.61;103393.66;4974594;28;102514;-49
2022/03/20 11:50:13;;;;;;;7.63;4.45;;;;;;;7.70;54.18;103399.06;4971859;28;104036;-50
2022/03/20 11:52:45;;;;;;;5.10;3.92;;;;;;;7.70;54.43;103382.81;4972961;28;102180;-50
2022/03/20 11:55:27;;;;;;;6.28;4.55;;;;;;;7.70;54.04;103391.78;4972277;28;102467;-49
2022/03/20 11:57:56;;;;;;;5.53;4.22;;;;;;;7.70;53.41;103399.06;4973550;28;102435;-50
2022/03/20 12:00:25;;;;;;;7.90;4.38;;;;;;;7.71;53.20;103387.19;4972643;28;103934;-49
2022/03/20 12:03:17;;;;;;;5.63;4.60;;;;;;;7.71;53.75;103400.75;4972934;28;101985;-50